sensor_id;sensor_type;location;lat;lon;timestamp;P1;P2;P0
46591;PMS6003;32314;48.748;9.656;2022-08-05T00:02:18;15.75;14.25;11.75
46591;PMS6003;32314;48.748;9.656;2022-08-05T00:05:04;14.50;14.50;11.75
46591;PMS6003;32314;48.748;9.656;2022-08-05T00:07:50;14.00;13.75;11.50
46591;PMS6003;32314;48.748;9.656;2022-08-05T00:10:36;13.50;13.50;12.25
46591;PMS6003;32314;48.748;9.656;2022-08-05T00:13:22;13.75;13.75;11.75
46591;PMS6003;32314;48.748;9.656;2022-08-05T00:16:08;13.50;13.50;12.00
46591;PMS6003;32314;48.748;9.656;2022-08-05T00:18:56;18.25;15.00;12.75
46591;PMS6003;32314;48.748;9.656;2022-08-05T00:21:42;16.00;14.75;13.00
46591;PMS6003;32314;48.748;9.656;2022-08-05T00:24:27;14.75;14.75;13.50
46591;PMS6003;32314;48.748;9.656;2022-08-05T00:27:13;12.50;11.50;10.00
46591;PMS6003;32314;48.748;9.656;2022-08-05T00:29:59;11.25;10.50;9.50
46591;PMS6003;32314;48.748;9.656;2022-08-05T00:32:45;13.00;13.00;12.00
46591;PMS6003;32314;48.748;9.656;2022-08-05T00:35:31;11.00;11.00;10.00
46591;PMS6003;32314;48.748;9.656;2022-08-05T00:38:16;15.75;15.75;13.00
46591;PMS6003;32314;48.748;9.656;2022-08-05T00:41:02;10.50;10.50;10.50
46591;PMS6003;32314;48.748;9.656;2022-08-05T00:43:51;11.50;11.50;10.50
46591;PMS6003;32314;48.748;9.656;2022-08-05T00:46:37;10.75;10.75;10.50
46591;PMS6003;32314;48.748;9.656;2022-08-05T00:49:23;12.25;11.75;10.50
46591;PMS6003;32314;48.748;9.656;2022-08-05T00:52:09;14.00;14.00;12.00
46591;PMS6003;32314;48.748;9.656;2022-08-05T00:54:55;12.50;11.00;9.50
46591;PMS6003;32314;48.748;9.656;2022-08-05T00:57:40;12.75;12.75;11.75
46591;PMS6003;32314;48.748;9.656;2022-08-05T01:00:27;12.75;12.75;11.00
46591;PMS6003;32314;48.748;9.656;2022-08-05T01:03:14;13.25;13.25;10.50
46591;PMS6003;32314;48.748;9.656;2022-08-05T01:06:00;12.75;12.75;10.25
46591;PMS6003;32314;48.748;9.656;2022-08-05T01:08:46;12.50;12.50;10.00
46591;PMS6003;32314;48.748;9.656;2022-08-05T01:11:33;12.50;12.50;10.25
46591;PMS6003;32314;48.748;9.656;2022-08-05T01:14:39;10.75;10.75;10.25
46591;PMS6003;32314;48.748;9.656;2022-08-05T01:17:49;14.00;14.00;12.75
46591;PMS6003;32314;48.748;9.656;2022-08-05T01:29:57;14.25;14.25;12.25
46591;PMS6003;32314;48.748;9.656;2022-08-05T01:32:48;14.50;13.75;11.75
46591;PMS6003;32314;48.748;9.656;2022-08-05T01:35:34;12.25;11.75;10.25
46591;PMS6003;32314;48.748;9.656;2022-08-05T01:38:24;15.75;15.75;14.50
46591;PMS6003;32314;48.748;9.656;2022-08-05T01:41:10;13.25;13.25;12.00
46591;PMS6003;32314;48.748;9.656;2022-08-05T01:43:58;15.25;13.50;11.50
46591;PMS6003;32314;48.748;9.656;2022-08-05T01:46:45;14.50;14.50;13.00
46591;PMS6003;32314;48.748;9.656;2022-08-05T01:49:31;14.75;14.75;13.00
46591;PMS6003;32314;48.748;9.656;2022-08-05T01:52:18;16.25;14.25;13.25
46591;PMS6003;32314;48.748;9.656;2022-08-05T01:55:07;16.50;16.50;14.25
46591;PMS6003;32314;48.748;9.656;2022-08-05T01:57:54;14.25;14.25;13.00
46591;PMS6003;32314;48.748;9.656;2022-08-05T02:00:43;14.75;14.75;12.50
46591;PMS6003;32314;48.748;9.656;2022-08-05T02:03:31;16.00;16.00;13.25
46591;PMS6003;32314;48.748;9.656;2022-08-05T02:06:19;15.25;15.25;13.75
46591;PMS6003;32314;48.748;9.656;2022-08-05T02:09:05;13.00;13.00;11.00
46591;PMS6003;32314;48.748;9.656;2022-08-05T02:15:24;12.50;12.50;10.50
46591;PMS6003;32314;48.748;9.656;2022-08-05T02:18:15;15.75;13.00;12.00
46591;PMS6003;32314;48.748;9.656;2022-08-05T02:21:17;13.00;13.00;12.75
46591;PMS6003;32314;48.748;9.656;2022-08-05T02:24:06;12.50;11.00;10.00
46591;PMS6003;32314;48.748;9.656;2022-08-05T02:26:55;15.50;14.75;13.25
46591;PMS6003;32314;48.748;9.656;2022-08-05T02:29:43;18.50;18.50;14.75
46591;PMS6003;32314;48.748;9.656;2022-08-05T02:32:30;14.00;14.00;13.00
46591;PMS6003;32314;48.748;9.656;2022-08-05T02:35:21;13.75;13.50;12.00
46591;PMS6003;32314;48.748;9.656;2022-08-05T02:38:08;13.50;13.25;12.00
46591;PMS6003;32314;48.748;9.656;2022-08-05T02:40:55;18.75;17.50;14.50
46591;PMS6003;32314;48.748;9.656;2022-08-05T02:43:43;17.50;17.50;15.00
46591;PMS6003;32314;48.748;9.656;2022-08-05T02:46:30;15.00;15.00;13.00
46591;PMS6003;32314;48.748;9.656;2022-08-05T02:49:18;17.00;17.00;13.25
46591;PMS6003;32314;48.748;9.656;2022-08-05T02:52:06;16.75;15.75;13.50
46591;PMS6003;32314;48.748;9.656;2022-08-05T02:54:53;15.75;15.75;14.00
46591;PMS6003;32314;48.748;9.656;2022-08-05T02:57:40;16.50;15.50;14.00
46591;PMS6003;32314;48.748;9.656;2022-08-05T03:00:27;17.25;15.50;13.25
46591;PMS6003;32314;48.748;9.656;2022-08-05T03:03:18;18.25;15.50;13.00
46591;PMS6003;32314;48.748;9.656;2022-08-05T03:06:04;14.50;13.00;11.00
46591;PMS6003;32314;48.748;9.656;2022-08-05T03:08:51;19.25;19.25;16.00
46591;PMS6003;32314;48.748;9.656;2022-08-05T03:11:39;18.00;16.50;13.00
46591;PMS6003;32314;48.748;9.656;2022-08-05T03:14:26;15.50;15.00;12.50
46591;PMS6003;32314;48.748;9.656;2022-08-05T03:17:12;14.75;14.00;12.00
46591;PMS6003;32314;48.748;9.656;2022-08-05T03:19:58;13.75;13.75;12.00
46591;PMS6003;32314;48.748;9.656;2022-08-05T03:22:44;13.75;13.75;12.50
46591;PMS6003;32314;48.748;9.656;2022-08-05T03:25:30;15.00;15.00;14.00
46591;PMS6003;32314;48.748;9.656;2022-08-05T03:28:16;16.00;14.50;12.00
46591;PMS6003;32314;48.748;9.656;2022-08-05T03:31:02;18.75;17.75;15.75
46591;PMS6003;32314;48.748;9.656;2022-08-05T03:33:49;18.75;16.75;15.00
46591;PMS6003;32314;48.748;9.656;2022-08-05T03:36:34;16.50;16.50;14.25
46591;PMS6003;32314;48.748;9.656;2022-08-05T03:39:20;16.00;16.00;13.75
46591;PMS6003;32314;48.748;9.656;2022-08-05T03:42:06;14.25;14.25;12.00
46591;PMS6003;32314;48.748;9.656;2022-08-05T03:44:52;16.25;16.25;14.00
46591;PMS6003;32314;48.748;9.656;2022-08-05T03:47:38;17.00;17.00;15.00
46591;PMS6003;32314;48.748;9.656;2022-08-05T03:50:25;16.75;16.00;14.00
46591;PMS6003;32314;48.748;9.656;2022-08-05T03:53:25;15.25;15.25;13.25
46591;PMS6003;32314;48.748;9.656;2022-08-05T03:59:04;15.25;15.25;13.50
46591;PMS6003;32314;48.748;9.656;2022-08-05T04:01:53;17.75;16.50;13.00
46591;PMS6003;32314;48.748;9.656;2022-08-05T04:04:40;17.75;17.00;14.00
46591;PMS6003;32314;48.748;9.656;2022-08-05T04:07:27;16.75;16.75;14.50
46591;PMS6003;32314;48.748;9.656;2022-08-05T04:10:13;15.00;15.00;13.25
46591;PMS6003;32314;48.748;9.656;2022-08-05T04:12:59;16.25;16.25;13.50
46591;PMS6003;32314;48.748;9.656;2022-08-05T04:15:45;14.75;14.75;12.50
46591;PMS6003;32314;48.748;9.656;2022-08-05T04:18:31;15.00;15.00;11.50
46591;PMS6003;32314;48.748;9.656;2022-08-05T04:21:17;15.00;15.00;13.00
46591;PMS6003;32314;48.748;9.656;2022-08-05T04:24:03;15.75;15.00;14.50
46591;PMS6003;32314;48.748;9.656;2022-08-05T04:26:49;17.00;17.00;13.50
46591;PMS6003;32314;48.748;9.656;2022-08-05T04:29:35;21.25;19.75;17.00
46591;PMS6003;32314;48.748;9.656;2022-08-05T04:32:21;17.75;17.75;13.50
46591;PMS6003;32314;48.748;9.656;2022-08-05T04:35:07;19.00;17.75;15.00
46591;PMS6003;32314;48.748;9.656;2022-08-05T04:37:53;11.75;10.50;10.00
46591;PMS6003;32314;48.748;9.656;2022-08-05T04:40:39;28.00;27.25;20.75
46591;PMS6003;32314;48.748;9.656;2022-08-05T04:43:25;18.75;18.75;16.00
46591;PMS6003;32314;48.748;9.656;2022-08-05T04:46:11;18.00;18.00;15.75
46591;PMS6003;32314;48.748;9.656;2022-08-05T04:48:57;13.00;13.00;10.75
46591;PMS6003;32314;48.748;9.656;2022-08-05T04:51:43;17.25;17.25;13.50
46591;PMS6003;32314;48.748;9.656;2022-08-05T04:54:28;16.00;16.00;14.00
46591;PMS6003;32314;48.748;9.656;2022-08-05T04:57:14;16.75;16.75;14.75
46591;PMS6003;32314;48.748;9.656;2022-08-05T05:00:00;17.25;15.75;13.75
46591;PMS6003;32314;48.748;9.656;2022-08-05T05:02:47;14.50;14.00;12.75
46591;PMS6003;32314;48.748;9.656;2022-08-05T05:05:33;18.50;17.50;15.00
46591;PMS6003;32314;48.748;9.656;2022-08-05T05:08:19;19.00;17.00;14.25
46591;PMS6003;32314;48.748;9.656;2022-08-05T05:11:05;16.75;16.75;13.75
46591;PMS6003;32314;48.748;9.656;2022-08-05T05:13:51;15.00;15.00;13.50
46591;PMS6003;32314;48.748;9.656;2022-08-05T05:16:37;16.75;16.75;15.25
46591;PMS6003;32314;48.748;9.656;2022-08-05T05:19:23;16.75;16.75;15.00
46591;PMS6003;32314;48.748;9.656;2022-08-05T05:22:09;16.00;14.00;13.00
46591;PMS6003;32314;48.748;9.656;2022-08-05T05:24:54;14.75;14.75;12.50
46591;PMS6003;32314;48.748;9.656;2022-08-05T05:27:40;18.00;18.00;15.75
46591;PMS6003;32314;48.748;9.656;2022-08-05T05:30:26;16.50;16.50;14.25
46591;PMS6003;32314;48.748;9.656;2022-08-05T05:33:13;10.00;10.00;9.50
46591;PMS6003;32314;48.748;9.656;2022-08-05T05:35:58;17.50;17.50;15.25
46591;PMS6003;32314;48.748;9.656;2022-08-05T05:38:44;17.00;15.75;13.75
46591;PMS6003;32314;48.748;9.656;2022-08-05T05:41:30;14.00;14.00;12.75
46591;PMS6003;32314;48.748;9.656;2022-08-05T05:44:16;14.25;14.25;13.00
46591;PMS6003;32314;48.748;9.656;2022-08-05T05:47:02;16.50;16.50;13.75
46591;PMS6003;32314;48.748;9.656;2022-08-05T05:49:48;13.50;13.50;12.25
46591;PMS6003;32314;48.748;9.656;2022-08-05T05:52:34;16.75;15.00;13.25
46591;PMS6003;32314;48.748;9.656;2022-08-05T05:55:20;14.75;14.75;12.00
46591;PMS6003;32314;48.748;9.656;2022-08-05T05:58:06;14.75;14.75;13.25
46591;PMS6003;32314;48.748;9.656;2022-08-05T06:00:52;14.00;14.00;12.50
46591;PMS6003;32314;48.748;9.656;2022-08-05T06:03:38;16.50;16.50;14.50
46591;PMS6003;32314;48.748;9.656;2022-08-05T06:06:23;14.00;13.75;12.25
46591;PMS6003;32314;48.748;9.656;2022-08-05T06:09:09;14.50;14.50;13.25
46591;PMS6003;32314;48.748;9.656;2022-08-05T06:11:56;14.50;14.50;12.00
46591;PMS6003;32314;48.748;9.656;2022-08-05T06:14:42;17.25;17.25;15.00
46591;PMS6003;32314;48.748;9.656;2022-08-05T06:17:29;12.50;12.50;11.00
46591;PMS6003;32314;48.748;9.656;2022-08-05T06:20:14;17.00;15.00;12.00
46591;PMS6003;32314;48.748;9.656;2022-08-05T06:23:00;13.00;13.00;11.00
46591;PMS6003;32314;48.748;9.656;2022-08-05T06:25:46;15.25;14.25;12.25
46591;PMS6003;32314;48.748;9.656;2022-08-05T06:28:33;13.00;13.00;11.75
46591;PMS6003;32314;48.748;9.656;2022-08-05T06:31:19;13.50;12.00;11.50
46591;PMS6003;32314;48.748;9.656;2022-08-05T06:34:05;12.75;12.75;11.00
46591;PMS6003;32314;48.748;9.656;2022-08-05T06:36:51;12.00;12.00;11.00
46591;PMS6003;32314;48.748;9.656;2022-08-05T06:39:36;15.00;14.00;12.00
46591;PMS6003;32314;48.748;9.656;2022-08-05T06:42:23;12.50;12.50;10.75
46591;PMS6003;32314;48.748;9.656;2022-08-05T06:45:09;11.25;11.25;10.50
46591;PMS6003;32314;48.748;9.656;2022-08-05T06:47:55;14.00;12.50;11.25
46591;PMS6003;32314;48.748;9.656;2022-08-05T06:50:41;11.75;11.75;9.25
46591;PMS6003;32314;48.748;9.656;2022-08-05T06:53:27;14.00;12.25;11.00
46591;PMS6003;32314;48.748;9.656;2022-08-05T06:56:13;11.00;11.00;11.00
46591;PMS6003;32314;48.748;9.656;2022-08-05T06:58:58;9.33;9.33;9.00
46591;PMS6003;32314;48.748;9.656;2022-08-05T07:01:44;10.67;10.67;9.33
46591;PMS6003;32314;48.748;9.656;2022-08-05T07:04:30;8.67;8.67;8.00
46591;PMS6003;32314;48.748;9.656;2022-08-05T07:07:16;9.67;9.00;8.00
46591;PMS6003;32314;48.748;9.656;2022-08-05T07:10:03;8.67;8.67;7.67
46591;PMS6003;32314;48.748;9.656;2022-08-05T07:12:49;8.67;8.67;8.33
46591;PMS6003;32314;48.748;9.656;2022-08-05T07:15:54;8.33;8.33;8.33
46591;PMS6003;32314;48.748;9.656;2022-08-05T07:18:58;9.00;9.00;7.00
46591;PMS6003;32314;48.748;9.656;2022-08-05T07:21:48;8.00;8.00;7.67
46591;PMS6003;32314;48.748;9.656;2022-08-05T07:24:34;10.33;9.00;8.33
46591;PMS6003;32314;48.748;9.656;2022-08-05T07:27:20;9.67;8.00;7.00
46591;PMS6003;32314;48.748;9.656;2022-08-05T07:30:06;8.25;6.75;6.50
46591;PMS6003;32314;48.748;9.656;2022-08-05T07:32:52;8.75;8.75;7.00
46591;PMS6003;32314;48.748;9.656;2022-08-05T07:35:38;8.75;8.75;8.25
46591;PMS6003;32314;48.748;9.656;2022-08-05T07:38:25;10.50;10.00;8.75
46591;PMS6003;32314;48.748;9.656;2022-08-05T07:41:15;8.25;8.25;7.50
46591;PMS6003;32314;48.748;9.656;2022-08-05T07:44:04;9.50;9.50;8.50
46591;PMS6003;32314;48.748;9.656;2022-08-05T07:46:51;8.00;8.00;7.00
46591;PMS6003;32314;48.748;9.656;2022-08-05T07:49:37;8.25;8.25;7.00
46591;PMS6003;32314;48.748;9.656;2022-08-05T07:52:23;8.67;8.67;7.33
46591;PMS6003;32314;48.748;9.656;2022-08-05T07:55:09;8.25;8.25;7.25
46591;PMS6003;32314;48.748;9.656;2022-08-05T07:57:55;8.33;8.33;7.00
46591;PMS6003;32314;48.748;9.656;2022-08-05T08:00:41;9.00;9.00;8.00
46591;PMS6003;32314;48.748;9.656;2022-08-05T08:03:27;8.00;8.00;7.00
46591;PMS6003;32314;48.748;9.656;2022-08-05T08:06:13;12.00;8.75;7.75
46591;PMS6003;32314;48.748;9.656;2022-08-05T08:08:58;5.00;5.00;4.25
46591;PMS6003;32314;48.748;9.656;2022-08-05T08:11:44;3.50;3.50;3.00
46591;PMS6003;32314;48.748;9.656;2022-08-05T08:14:30;2.75;2.75;2.50
46591;PMS6003;32314;48.748;9.656;2022-08-05T08:17:16;2.50;2.50;2.50
46591;PMS6003;32314;48.748;9.656;2022-08-05T08:20:02;4.00;3.00;3.00
46591;PMS6003;32314;48.748;9.656;2022-08-05T08:22:54;3.75;3.75;3.75
46591;PMS6003;32314;48.748;9.656;2022-08-05T08:25:41;3.00;3.00;2.75
46591;PMS6003;32314;48.748;9.656;2022-08-05T08:28:27;2.50;2.50;2.00
46591;PMS6003;32314;48.748;9.656;2022-08-05T08:31:13;2.25;2.25;2.00
46591;PMS6003;32314;48.748;9.656;2022-08-05T08:33:59;3.00;3.00;2.75
46591;PMS6003;32314;48.748;9.656;2022-08-05T08:36:45;5.50;4.00;3.25
46591;PMS6003;32314;48.748;9.656;2022-08-05T08:39:31;3.25;3.25;3.00
46591;PMS6003;32314;48.748;9.656;2022-08-05T08:42:17;4.00;4.00;3.75
46591;PMS6003;32314;48.748;9.656;2022-08-05T08:45:03;3.75;2.25;2.00
46591;PMS6003;32314;48.748;9.656;2022-08-05T08:47:49;2.25;2.25;2.00
46591;PMS6003;32314;48.748;9.656;2022-08-05T08:50:40;2.50;2.00;2.00
46591;PMS6003;32314;48.748;9.656;2022-08-05T08:53:27;3.25;3.25;2.00
46591;PMS6003;32314;48.748;9.656;2022-08-05T08:56:21;2.00;2.00;1.00
46591;PMS6003;32314;48.748;9.656;2022-08-05T08:59:08;3.00;3.00;3.00
46591;PMS6003;32314;48.748;9.656;2022-08-05T09:01:55;3.75;2.00;2.00
46591;PMS6003;32314;48.748;9.656;2022-08-05T09:04:41;3.00;3.00;2.25
46591;PMS6003;32314;48.748;9.656;2022-08-05T09:07:29;3.75;3.75;3.00
46591;PMS6003;32314;48.748;9.656;2022-08-05T09:10:15;8.00;4.00;3.25
46591;PMS6003;32314;48.748;9.656;2022-08-05T09:13:01;6.00;4.25;4.00
46591;PMS6003;32314;48.748;9.656;2022-08-05T09:15:46;3.00;3.00;2.50
46591;PMS6003;32314;48.748;9.656;2022-08-05T09:18:34;2.50;2.50;2.25
46591;PMS6003;32314;48.748;9.656;2022-08-05T09:21:20;3.75;3.75;3.50
46591;PMS6003;32314;48.748;9.656;2022-08-05T09:24:12;3.75;3.75;3.25
46591;PMS6003;32314;48.748;9.656;2022-08-05T09:27:00;4.00;4.00;3.75
46591;PMS6003;32314;48.748;9.656;2022-08-05T09:29:46;5.00;5.00;4.25
46591;PMS6003;32314;48.748;9.656;2022-08-05T09:32:35;4.00;4.00;3.25
46591;PMS6003;32314;48.748;9.656;2022-08-05T09:35:22;3.75;3.75;3.00
46591;PMS6003;32314;48.748;9.656;2022-08-05T09:38:08;4.00;4.00;3.25
46591;PMS6003;32314;48.748;9.656;2022-08-05T09:41:00;4.00;4.00;3.75
46591;PMS6003;32314;48.748;9.656;2022-08-05T09:43:50;3.00;3.00;3.00
46591;PMS6003;32314;48.748;9.656;2022-08-05T09:46:35;3.25;3.25;3.00
46591;PMS6003;32314;48.748;9.656;2022-08-05T09:49:22;3.00;3.00;3.00
46591;PMS6003;32314;48.748;9.656;2022-08-05T09:52:16;3.50;3.00;2.75
46591;PMS6003;32314;48.748;9.656;2022-08-05T09:55:09;3.25;3.25;3.25
46591;PMS6003;32314;48.748;9.656;2022-08-05T09:57:55;3.25;3.25;3.00
46591;PMS6003;32314;48.748;9.656;2022-08-05T10:00:51;2.75;2.75;2.25
46591;PMS6003;32314;48.748;9.656;2022-08-05T10:03:40;3.25;3.25;3.25
46591;PMS6003;32314;48.748;9.656;2022-08-05T10:06:40;3.25;3.25;3.00
46591;PMS6003;32314;48.748;9.656;2022-08-05T10:09:26;3.75;3.75;2.75
46591;PMS6003;32314;48.748;9.656;2022-08-05T10:12:12;1.50;1.50;1.50
46591;PMS6003;32314;48.748;9.656;2022-08-05T10:15:15;3.00;3.00;3.00
46591;PMS6003;32314;48.748;9.656;2022-08-05T10:18:15;6.75;3.75;3.75
46591;PMS6003;32314;48.748;9.656;2022-08-05T10:21:06;3.50;3.50;3.00
46591;PMS6003;32314;48.748;9.656;2022-08-05T10:23:52;4.00;3.50;3.25
46591;PMS6003;32314;48.748;9.656;2022-08-05T10:26:39;3.75;3.75;3.00
46591;PMS6003;32314;48.748;9.656;2022-08-05T10:29:25;3.00;3.00;2.00
46591;PMS6003;32314;48.748;9.656;2022-08-05T10:32:13;5.00;5.00;4.00
46591;PMS6003;32314;48.748;9.656;2022-08-05T10:34:59;3.00;3.00;3.00
46591;PMS6003;32314;48.748;9.656;2022-08-05T10:37:45;3.25;2.25;2.25
46591;PMS6003;32314;48.748;9.656;2022-08-05T10:43:46;2.00;2.00;2.00
46591;PMS6003;32314;48.748;9.656;2022-08-05T10:46:52;2.50;2.50;2.00
46591;PMS6003;32314;48.748;9.656;2022-08-05T10:49:58;3.00;3.00;3.00
46591;PMS6003;32314;48.748;9.656;2022-08-05T10:52:53;1.50;1.50;1.00
46591;PMS6003;32314;48.748;9.656;2022-08-05T10:56:00;2.50;2.50;2.00
46591;PMS6003;32314;48.748;9.656;2022-08-05T10:59:08;3.00;3.00;2.50
46591;PMS6003;32314;48.748;9.656;2022-08-05T11:02:06;3.00;2.25;2.00
46591;PMS6003;32314;48.748;9.656;2022-08-05T11:04:54;3.00;3.00;3.00
46591;PMS6003;32314;48.748;9.656;2022-08-05T11:07:59;4.00;4.00;3.00
46591;PMS6003;32314;48.748;9.656;2022-08-05T11:10:49;2.75;2.75;2.50
46591;PMS6003;32314;48.748;9.656;2022-08-05T11:13:39;3.25;3.25;3.00
46591;PMS6003;32314;48.748;9.656;2022-08-05T11:16:25;3.75;3.75;3.00
46591;PMS6003;32314;48.748;9.656;2022-08-05T11:19:27;4.75;4.00;4.00
46591;PMS6003;32314;48.748;9.656;2022-08-05T11:25:34;4.00;4.00;3.75
46591;PMS6003;32314;48.748;9.656;2022-08-05T11:34:06;3.50;3.50;3.25
46591;PMS6003;32314;48.748;9.656;2022-08-05T11:36:52;3.00;3.00;3.00
46591;PMS6003;32314;48.748;9.656;2022-08-05T11:39:49;3.50;3.50;3.00
46591;PMS6003;32314;48.748;9.656;2022-08-05T11:42:36;3.00;3.00;3.00
46591;PMS6003;32314;48.748;9.656;2022-08-05T11:45:23;2.50;1.00;1.00
46591;PMS6003;32314;48.748;9.656;2022-08-05T11:48:09;3.00;3.00;2.75
46591;PMS6003;32314;48.748;9.656;2022-08-05T11:50:55;4.50;4.50;4.00
46591;PMS6003;32314;48.748;9.656;2022-08-05T11:53:41;2.75;2.75;2.25
46591;PMS6003;32314;48.748;9.656;2022-08-05T11:56:46;3.25;3.25;3.00
46591;PMS6003;32314;48.748;9.656;2022-08-05T11:59:33;2.25;2.25;2.00
46591;PMS6003;32314;48.748;9.656;2022-08-05T12:02:26;1.00;1.00;0.50
46591;PMS6003;32314;48.748;9.656;2022-08-05T12:05:23;4.25;4.25;3.75
46591;PMS6003;32314;48.748;9.656;2022-08-05T12:08:12;3.25;3.25;3.00
46591;PMS6003;32314;48.748;9.656;2022-08-05T12:10:59;4.00;4.00;4.00
46591;PMS6003;32314;48.748;9.656;2022-08-05T12:13:58;2.75;2.75;2.50
46591;PMS6003;32314;48.748;9.656;2022-08-05T12:16:46;3.00;2.75;2.75
46591;PMS6003;32314;48.748;9.656;2022-08-05T12:19:38;3.50;3.50;3.00
46591;PMS6003;32314;48.748;9.656;2022-08-05T12:22:26;4.25;4.25;4.00
46591;PMS6003;32314;48.748;9.656;2022-08-05T12:25:13;4.75;4.75;4.00
46591;PMS6003;32314;48.748;9.656;2022-08-05T12:27:59;5.50;4.00;4.00
46591;PMS6003;32314;48.748;9.656;2022-08-05T12:30:45;4.00;4.00;3.75
46591;PMS6003;32314;48.748;9.656;2022-08-05T12:33:34;3.25;3.25;3.00
46591;PMS6003;32314;48.748;9.656;2022-08-05T12:36:22;4.50;4.50;4.50
46591;PMS6003;32314;48.748;9.656;2022-08-05T12:39:08;4.75;4.75;4.00
46591;PMS6003;32314;48.748;9.656;2022-08-05T12:41:57;3.75;3.75;3.75
46591;PMS6003;32314;48.748;9.656;2022-08-05T12:44:44;3.00;3.00;3.00
46591;PMS6003;32314;48.748;9.656;2022-08-05T12:47:31;5.75;5.75;5.25
46591;PMS6003;32314;48.748;9.656;2022-08-05T12:50:17;3.25;3.25;3.00
46591;PMS6003;32314;48.748;9.656;2022-08-05T12:53:03;4.50;4.50;4.00
46591;PMS6003;32314;48.748;9.656;2022-08-05T12:55:49;4.00;4.00;3.25
46591;PMS6003;32314;48.748;9.656;2022-08-05T12:58:35;3.00;3.00;2.75
46591;PMS6003;32314;48.748;9.656;2022-08-05T13:01:21;4.00;4.00;4.00
46591;PMS6003;32314;48.748;9.656;2022-08-05T13:04:07;3.00;3.00;3.00
46591;PMS6003;32314;48.748;9.656;2022-08-05T13:06:58;5.75;5.75;4.75
46591;PMS6003;32314;48.748;9.656;2022-08-05T13:09:49;4.00;4.00;3.50
46591;PMS6003;32314;48.748;9.656;2022-08-05T13:12:43;5.00;5.00;5.00
46591;PMS6003;32314;48.748;9.656;2022-08-05T13:15:30;3.00;3.00;3.00
46591;PMS6003;32314;48.748;9.656;2022-08-05T13:18:17;3.00;3.00;3.00
46591;PMS6003;32314;48.748;9.656;2022-08-05T13:21:03;3.75;3.75;3.25
46591;PMS6003;32314;48.748;9.656;2022-08-05T13:23:49;4.00;4.00;4.00
46591;PMS6003;32314;48.748;9.656;2022-08-05T13:26:48;3.50;3.50;3.00
46591;PMS6003;32314;48.748;9.656;2022-08-05T13:29:34;3.75;3.75;2.75
46591;PMS6003;32314;48.748;9.656;2022-08-05T13:32:20;2.25;2.25;2.00
46591;PMS6003;32314;48.748;9.656;2022-08-05T13:35:06;4.00;4.00;3.25
46591;PMS6003;32314;48.748;9.656;2022-08-05T13:37:53;3.75;3.75;3.00
46591;PMS6003;32314;48.748;9.656;2022-08-05T13:43:30;4.25;3.75;3.00
46591;PMS6003;32314;48.748;9.656;2022-08-05T13:46:16;5.50;5.50;4.75
46591;PMS6003;32314;48.748;9.656;2022-08-05T13:49:02;3.00;3.00;3.00
46591;PMS6003;32314;48.748;9.656;2022-08-05T13:51:50;4.00;4.00;3.50
46591;PMS6003;32314;48.748;9.656;2022-08-05T13:54:36;4.00;4.00;4.00
46591;PMS6003;32314;48.748;9.656;2022-08-05T13:57:22;5.00;5.00;5.00
46591;PMS6003;32314;48.748;9.656;2022-08-05T14:00:08;3.25;3.25;2.75
46591;PMS6003;32314;48.748;9.656;2022-08-05T14:02:55;5.00;5.00;4.50
46591;PMS6003;32314;48.748;9.656;2022-08-05T14:05:41;5.00;5.00;5.00
46591;PMS6003;32314;48.748;9.656;2022-08-05T14:08:27;3.50;3.50;3.25
46591;PMS6003;32314;48.748;9.656;2022-08-05T14:11:12;7.00;5.25;4.50
46591;PMS6003;32314;48.748;9.656;2022-08-05T14:13:58;5.75;5.75;5.75
46591;PMS6003;32314;48.748;9.656;2022-08-05T14:16:44;4.00;4.00;3.75
46591;PMS6003;32314;48.748;9.656;2022-08-05T14:19:30;6.50;5.50;4.50
46591;PMS6003;32314;48.748;9.656;2022-08-05T14:22:16;4.50;4.50;4.50
46591;PMS6003;32314;48.748;9.656;2022-08-05T14:25:02;4.00;4.00;4.00
46591;PMS6003;32314;48.748;9.656;2022-08-05T14:27:48;6.00;6.00;5.00
46591;PMS6003;32314;48.748;9.656;2022-08-05T14:30:35;4.00;4.00;4.00
46591;PMS6003;32314;48.748;9.656;2022-08-05T14:33:21;6.25;6.25;5.25
46591;PMS6003;32314;48.748;9.656;2022-08-05T14:36:07;4.50;4.50;4.50
46591;PMS6003;32314;48.748;9.656;2022-08-05T14:38:53;3.25;3.25;3.25
46591;PMS6003;32314;48.748;9.656;2022-08-05T14:41:39;7.75;7.75;6.50
46591;PMS6003;32314;48.748;9.656;2022-08-05T14:44:25;6.00;4.00;4.00
46591;PMS6003;32314;48.748;9.656;2022-08-05T14:47:11;5.75;5.75;5.75
46591;PMS6003;32314;48.748;9.656;2022-08-05T14:49:56;4.00;4.00;4.00
46591;PMS6003;32314;48.748;9.656;2022-08-05T14:52:42;4.00;4.00;4.00
46591;PMS6003;32314;48.748;9.656;2022-08-05T14:55:28;5.00;5.00;5.00
46591;PMS6003;32314;48.748;9.656;2022-08-05T14:58:14;5.75;5.75;5.00
46591;PMS6003;32314;48.748;9.656;2022-08-05T15:01:00;4.25;4.25;4.00
46591;PMS6003;32314;48.748;9.656;2022-08-05T15:03:45;5.25;5.25;4.50
46591;PMS6003;32314;48.748;9.656;2022-08-05T15:06:31;6.25;6.25;4.75
46591;PMS6003;32314;48.748;9.656;2022-08-05T15:09:18;6.00;4.00;4.00
46591;PMS6003;32314;48.748;9.656;2022-08-05T15:12:04;6.00;6.00;5.00
46591;PMS6003;32314;48.748;9.656;2022-08-05T15:14:51;5.00;5.00;4.50
46591;PMS6003;32314;48.748;9.656;2022-08-05T15:17:36;5.75;5.75;5.25
46591;PMS6003;32314;48.748;9.656;2022-08-05T15:20:22;5.00;5.00;5.00
46591;PMS6003;32314;48.748;9.656;2022-08-05T15:23:10;5.75;5.75;5.50
46591;PMS6003;32314;48.748;9.656;2022-08-05T15:25:55;6.25;4.50;4.25
46591;PMS6003;32314;48.748;9.656;2022-08-05T15:28:42;7.25;6.25;5.00
46591;PMS6003;32314;48.748;9.656;2022-08-05T15:31:28;5.25;5.25;4.75
46591;PMS6003;32314;48.748;9.656;2022-08-05T15:34:14;5.75;4.75;4.50
46591;PMS6003;32314;48.748;9.656;2022-08-05T15:37:00;4.25;4.25;3.50
46591;PMS6003;32314;48.748;9.656;2022-08-05T15:39:46;3.75;3.75;3.00
46591;PMS6003;32314;48.748;9.656;2022-08-05T15:42:32;4.00;4.00;3.75
46591;PMS6003;32314;48.748;9.656;2022-08-05T15:45:17;3.00;3.00;3.00
46591;PMS6003;32314;48.748;9.656;2022-08-05T15:48:03;4.00;4.00;4.00
46591;PMS6003;32314;48.748;9.656;2022-08-05T15:50:49;5.00;5.00;4.25
46591;PMS6003;32314;48.748;9.656;2022-08-05T15:53:35;4.00;4.00;3.75
46591;PMS6003;32314;48.748;9.656;2022-08-05T15:56:22;3.25;3.25;3.00
46591;PMS6003;32314;48.748;9.656;2022-08-05T15:59:08;4.00;4.00;3.75
46591;PMS6003;32314;48.748;9.656;2022-08-05T16:01:53;5.25;4.00;4.00
46591;PMS6003;32314;48.748;9.656;2022-08-05T16:04:39;4.00;4.00;3.25
46591;PMS6003;32314;48.748;9.656;2022-08-05T16:07:25;6.50;4.00;4.00
46591;PMS6003;32314;48.748;9.656;2022-08-05T16:10:11;6.25;6.25;5.50
46591;PMS6003;32314;48.748;9.656;2022-08-05T16:12:57;6.75;5.00;4.25
46591;PMS6003;32314;48.748;9.656;2022-08-05T16:15:43;7.00;7.00;5.00
46591;PMS6003;32314;48.748;9.656;2022-08-05T16:18:29;4.75;4.75;4.25
46591;PMS6003;32314;48.748;9.656;2022-08-05T16:21:17;4.25;4.25;4.00
46591;PMS6003;32314;48.748;9.656;2022-08-05T16:24:02;5.25;5.25;5.00
46591;PMS6003;32314;48.748;9.656;2022-08-05T16:26:53;6.00;6.00;5.00
46591;PMS6003;32314;48.748;9.656;2022-08-05T16:29:42;4.00;4.00;4.00
46591;PMS6003;32314;48.748;9.656;2022-08-05T16:32:28;5.00;5.00;4.75
46591;PMS6003;32314;48.748;9.656;2022-08-05T16:35:14;6.25;6.25;5.50